Júnior Lima

Chefscout - Fluminense
2 Sep 2027
Donnerstag
Verarbeitung

Persönlichkeit

Anpassungsfähigkeit (15) Ehrgeiz (13) Kontroverse (6) Loyalität (18) Druck (9) Professionalität (19) Fairness (6) Temperament (1)

Profil

Trainerstil Demokratisch
Lizenz Nationale A
Entschlossenheit 10
Menschenführung 7
Motivation 7
Disziplin 8
Arbeitszufriedenheit
88%
Ermüdung
0%
Rolle Chefscout
Gehalt 72.1K p/W
Vertrag 14.03.2029

Leistung

Verhalten Gut
Trainingseffektivität
52%
Spielerentwicklung
55%
Verletzungsprävention
25%
Taktische Umsetzung
55%

Letzte Ereignisse

Spieler begutachtet jetzt
Nahm an einer Scouting-Besprechung teil jetzt
Empfahl ein Transferziel jetzt
Empfahl ein Transferziel jetzt
Empfahl ein Transferziel jetzt
Empfahl ein Transferziel jetzt
Empfahl ein Transferziel jetzt
Empfahl ein Transferziel jetzt

Aktuell beobachtet

267
Spieler Verein Status Fähigkeit Vertrauen Beobachtet Zuletzt beobachtet Letzte Stimme
Marcos Antonio Sport Recife Aktiv 145 / 144 40% 2 01.09.2027 -
Bryan Ramírez FC Cincinnati Aktiv 129 / 126 40% 1 01.09.2027 -
Santiago Ramos Mingo Bahia Aktiv 132 / 121 40% 1 01.09.2027 -
Santiago Sosa Vasco da Gama Aktiv 135 / 141 40% 2 30.08.2027 -
Charles Pickel Sharjah Aktiv 133 / 126 40% 1 30.08.2027 -
Lyanco Atlético Mineiro Aktiv 134 / 117 40% 1 30.08.2027 -
Mamadou Coulibaly Al Jazira Aktiv 127 / 134 40% 1 29.08.2027 -
Danilo Botafogo Aktiv 143 / 140 40% 1 29.08.2027 -
Pedro Malheiro Al Wasl Aktiv 141 / 161 40% 1 29.08.2027 -
Renan Lodi Atlético Mineiro Aktiv 143 / 152 40% 3 28.08.2027 -
Teboho Mokoena Independiente Aktiv 138 / 127 40% 1 28.08.2027 -
Miles Robinson FC Cincinnati Aktiv 135 / 137 40% 1 28.08.2027 -
Arthur Santos Aktiv 143 / 149 40% 2 27.08.2027 -
Willyan Rocha Al Jazira Aktiv 130 / 135 40% 1 27.08.2027 -
Vitinho Botafogo Aktiv 138 / 132 40% 5 26.08.2027 -
Sergio Reguilón Inter Miami CF Aktiv 139 / 144 40% 1 26.08.2027 -
Nicolás Romero Minnesota United FC Aktiv 133 / 141 40% 1 26.08.2027 -
Naves Palmeiras Aktiv 134 / 138 40% 1 25.08.2027 -
Mateo Mendoza Godoy Cruz Aktiv 124 / 137 40% 1 25.08.2027 -
Khellven Palmeiras Aktiv 136 / 138 40% 1 25.08.2027 -
Ismaël Bennacer Malmo FF Aktiv 156 / 127 40% 1 24.08.2027 -
Bruno Fuchs Palmeiras Aktiv 135 / 128 40% 1 24.08.2027 -
Keven Schlotterbeck FC Augsburg Aktiv 147 / 136 40% 1 23.08.2027 -
Robin Fellhauer FC Augsburg Aktiv 138 / 154 40% 1 23.08.2027 -
Leonardo Borja La Equidad Aktiv 148 / 147 40% 1 23.08.2027 -
José Hurtado Bragantino Aktiv 128 / 138 40% 4 21.08.2027 -
Enzo Díaz Sport Recife Aktiv 128 / 132 40% 1 21.08.2027 -
Renato Tapia Al Wasl Aktiv 136 / 137 40% 1 21.08.2027 -
Filippo Ranocchia Palermo Aktiv 135 / 118 40% 1 20.08.2027 -
Giuseppe Pezzella Cremonese Aktiv 131 / 138 40% 1 20.08.2027 -
Nadir Zortea Bologna Aktiv 137 / 144 40% 1 20.08.2027 -
Curtis Jones Inter Aktiv 157 / 160 40% 6 19.08.2027 -
Juan Miranda Bologna Aktiv 151 / 143 40% 1 19.08.2027 -
Romano Floriani Mussolini Avellino Aktiv 133 / 136 40% 1 19.08.2027 -
Manu Koné AS Roma Aktiv 169 / 172 40% 4 18.08.2027 -
Trevoh Chalobah Como Aktiv 158 / 149 40% 1 18.08.2027 -
Aleš Matějů Spezia Aktiv 129 / 119 40% 1 18.08.2027 -
Adrià Altimira Deportivo La Coruña Aktiv 140 / 133 40% 2 16.08.2027 -
Nicolò Rovella Lazio Aktiv 157 / 166 40% 2 16.08.2027 -
Nuno Tavares Lazio Aktiv 148 / 163 40% 1 16.08.2027 -
Fabio Gerli Modena Aktiv 132 / 115 40% 1 14.08.2027 -
Daniel Tonoli Modena Aktiv 132 / 117 40% 1 14.08.2027 -
Carlos Augusto Inter Aktiv 153 / 142 40% 1 13.08.2027 -
Federico Dimarco Inter Aktiv 170 / 165 40% 1 13.08.2027 -
Giorgio Scalvini Atalanta Aktiv 159 / 170 40% 1 13.08.2027 -
Matteo Pessina Monza Aktiv 136 / 149 40% 1 12.08.2027 -
Samuele Angori Pisa Aktiv 137 / 132 40% 1 12.08.2027 -
Ethan Galbraith Swansea City Aktiv 138 / 128 40% 11 08.08.2027 -
Tyler Adams Bournemouth Aktiv 160 / 155 40% 5 08.08.2027 -
Hector Ramirez Newcastle United Aktiv 152 / 165 40% 6 08.08.2027 -
Quinten Timber Crystal Palace Aktiv 150 / 160 40% 2 07.08.2027 -
Milan van Ewijk Mansfield Town Aktiv 142 / 128 40% 5 07.08.2027 -
Harry Clarke Preston Aktiv 138 / 138 40% 8 06.08.2027 -
Guille Rosas Gijón Aktiv 144 / 160 40% 6 06.08.2027 -
Azor Matusiwa Ipswich Town Aktiv 141 / 150 40% 4 04.08.2027 -
Florentino Luís Ipswich Town Aktiv 146 / 157 40% 9 03.08.2027 -
Hamza Choudhury Leicester City Aktiv 130 / 114 40% 2 03.08.2027 -
Kristoffer Lund Birmingham Aktiv 133 / 138 40% 3 02.08.2027 -
Mats Wieffer Brighton Aktiv 156 / 145 40% 7 02.08.2027 -
Callum Doyle Wrexham Aktiv 132 / 131 40% 7 31.07.2027 -
Saša Lukić Ipswich Town Aktiv 144 / 148 40% 7 31.07.2027 -
Ross McCrorie Bristol City Aktiv 137 / 137 40% 1 30.07.2027 -
Darlin Yongwa Norwich City Aktiv 123 / 121 40% 1 30.07.2027 -
Max Bird Birmingham Aktiv 133 / 143 40% 8 27.07.2027 -
Sven Botman Newcastle United Aktiv 167 / 160 40% 6 26.07.2027 -
Imrân Louza Watford Aktiv 138 / 146 40% 2 26.07.2027 -
Boubacar Kamara Aston Villa Aktiv 162 / 149 40% 5 25.07.2027 -
Adrien Truffert Bournemouth Aktiv 155 / 149 40% 5 25.07.2027 -
Nordi Mukiele Sunderland Aktiv 152 / 160 40% 5 25.07.2027 -
Adam Wharton Crystal Palace Aktiv 154 / 172 40% 4 24.07.2027 -
Dara O'Shea Ipswich Town Aktiv 145 / 139 40% 4 23.07.2027 -
Pedro Porro Tottenham Aktiv 149 / 138 40% 2 23.07.2027 -
Paik Seung-Ho Birmingham Aktiv 137 / 119 40% 1 23.07.2027 -
Noah Sadiki Sunderland Aktiv 153 / 157 40% 5 22.07.2027 -
Femi Seriki Sheffield United Aktiv 137 / 136 40% 1 22.07.2027 -
Derry Murkin Derby County Aktiv 133 / 146 40% 4 21.07.2027 -
Michael Baidoo Plymouth Argyle Aktiv 131 / 127 40% 2 21.07.2027 -
Igor Burnley Aktiv 137 / 149 40% 3 20.07.2027 -
Callum Brittain Middlesbrough Aktiv 136 / 125 40% 8 16.07.2027 -
Amadou Onana Aston Villa Aktiv 157 / 160 40% 8 15.07.2027 -
Soungoutou Magassa West Ham United Aktiv 140 / 127 40% 4 14.07.2027 -
Óscar Mingueza Crystal Palace Aktiv 159 / 144 40% 3 14.07.2027 -
Teden Mengi Luton Town Aktiv 129 / 123 40% 1 14.07.2027 -
Welington Southampton Aktiv 137 / 143 40% 11 11.07.2027 -
Toby Collyer West Bromwich Albion Aktiv 140 / 153 40% 4 11.07.2027 -
Ryan Sessegnon Fulham Aktiv 146 / 152 40% 3 10.07.2027 -
Leif Davis Ipswich Town Aktiv 138 / 153 40% 3 10.07.2027 -
Nicolas Madsen Queens Park Rangers Aktiv 138 / 116 40% 2 09.07.2027 -
Anel Ahmedhodžić Burnley Aktiv 141 / 150 40% 2 08.07.2027 -
Christos Mouzakitis Hull City Aktiv 133 / 131 40% 2 07.07.2027 -
Ben Sheaf Wrexham Aktiv 129 / 140 40% 1 07.07.2027 -
Kenny Tete Fulham Aktiv 140 / 137 40% 7 05.07.2027 -
Benjamin White Arsenal Aktiv 158 / 142 40% 6 05.07.2027 -
Alfie Doughty Millwall Aktiv 130 / 145 40% 1 05.07.2027 -
Jan Paul van Hecke Tottenham Aktiv 156 / 173 40% 4 01.07.2027 Beobachten
Aidan Morris Middlesbrough Aktiv 129 / 122 40% 1 01.07.2027 -
Shea Charles Southampton Aktiv 139 / 148 40% 6 30.06.2027 -
Luke McNally Bristol City Aktiv 131 / 135 40% 3 29.06.2027 -
Anton Stach Leeds United Aktiv 152 / 151 40% 2 22.06.2027 -
Nathan Collins Brentford Aktiv 150 / 148 40% 1 22.06.2027 -
Jake O'Brien Everton Aktiv 145 / 164 40% 1 13.06.2027 -
Kyle Walker-Peters West Ham United Aktiv 140 / 129 40% 3 08.06.2027 -
Micky van de Ven Tottenham Aktiv 163 / 165 40% 1 05.06.2027 -
Negueba Mirassol Aktiv 130 / 133 79% 1 03.06.2027 Befürworten
Xaver Schlager Nottingham Forest Aktiv 151 / 159 40% 4 02.06.2027 -
Bitello SC Freiburg Verhandlung 135 / 135 68% 1 01.06.2027 Befürworten
Ademir Bahia Aktiv 126 / 125 79% 1 01.06.2027 Befürworten
Michele Cerofolini Bari Aktiv 136 / 128 40% 1 31.05.2027 -
Juanlu Bournemouth Aktiv 146 / 151 40% 1 30.05.2027 -
Conor Gallagher Tottenham Aktiv 153 / 159 40% 1 25.05.2027 Mehr Infos nötig
Alessandro Buongiorno Sassuolo Aktiv 151 / 172 40% 1 19.05.2027 -
Adam Randell Bristol City Aktiv 124 / 120 40% 1 19.05.2027 -
Japhet Tanganga Sheffield United Aktiv 138 / 114 40% 1 09.05.2027 -
Pierre Kalulu Juventus Aktiv 158 / 164 40% 2 05.05.2027 -
Leon Goretzka Aston Villa Aktiv 160 / 144 40% 3 28.04.2027 -
Víctor Gómez Braga Aktiv 141 / 149 40% 12 24.04.2027 -
Dinis Pinto Moreirense Aktiv 134 / 119 40% 11 21.04.2027 -
Javi Sánchez Arouca Aktiv 133 / 136 40% 6 21.04.2027 -
João Palhinha Benfica Aktiv 147 / 157 40% 5 19.04.2027 -
Jordan Holsgrove Estoril Praia Aktiv 132 / 129 40% 8 19.04.2027 -
Luís Esteves Atlas Aktiv 130 / 125 40% 8 17.04.2027 -
Iván Fresneda Sporting CP Aktiv 139 / 140 40% 7 16.04.2027 -
Hwang In-Beom Porto Aktiv 151 / 125 40% 9 14.04.2027 -
Renato Sanches AVS Aktiv 126 / 122 40% 9 13.04.2027 -
Bright Arrey-Mbi Braga Aktiv 127 / 135 40% 4 12.04.2027 -
João Simões Sporting CP Aktiv 136 / 123 40% 6 12.04.2027 -
Toti Wolverhampton Aktiv 137 / 136 40% 1 12.04.2027 -
Rodrigo Pinheiro Famalicao Aktiv 134 / 147 40% 9 10.04.2027 -
Francisco Moura Lusitânia Lourosa Aktiv 134 / 127 40% 6 07.04.2027 -
Zeno Debast Sporting CP Aktiv 138 / 153 40% 1 07.04.2027 -
Mathias De Amorim Famalicao Aktiv 131 / 150 40% 1 01.04.2027 -
Sikou Niakaté Braga Aktiv 131 / 126 40% 5 31.03.2027 -
Jesús Angulo Tigres Aktiv 135 / 136 40% 4 31.03.2027 -
Alberto Costa Porto Aktiv 149 / 145 40% 7 26.03.2027 -
Kevin Álvarez Club America Aktiv 134 / 120 40% 2 16.03.2027 -
Alan Varela Porto Aktiv 138 / 161 40% 1 09.03.2027 -
Gerardo Arteaga Monterrey Aktiv 132 / 141 40% 3 07.03.2027 -
Joaquim Tigres Aktiv 133 / 139 40% 4 06.03.2027 -
Nahuel Tenaglia Tigres Aktiv 132 / 135 40% 1 28.02.2027 -
Fidel Ambríz Monterrey Aktiv 132 / 135 40% 1 28.02.2027 -
Gonçalo Inácio Sporting CP Aktiv 143 / 157 40% 7 27.02.2027 -
Gonzalo Piovi Cruz Azul Aktiv 130 / 142 40% 5 26.02.2027 -
Andrew Robertson Tottenham Aktiv 156 / 165 40% 1 26.02.2027 -
Ousmane Diomande Nottingham Forest Aktiv 150 / 151 40% 1 25.02.2027 -
John Stones Inter Aktiv 158 / 147 40% 1 25.02.2027 -
James Garner Everton Aktiv 154 / 160 40% 1 23.02.2027 -
Ryan Christie Bournemouth Aktiv 148 / 127 40% 2 22.02.2027 -
Jan Bednarek Porto Aktiv 146 / 159 40% 2 21.02.2027 -
Nicolás Fernández Mercau Shakhtar Aktiv 139 / 126 40% 2 21.02.2027 -
Richard Ledezma Guadalajara Aktiv 140 / 129 40% 1 21.02.2027 -
Jesús Orozco Chiquete Cruz Azul Aktiv 127 / 138 40% 2 19.02.2027 -
Kevin Vazquez Cruz Azul Aktiv 131 / 143 40% 1 17.02.2027 -
Adonis Frías Atlas Aktiv 127 / 127 40% 1 15.02.2027 -
Rubén Duarte Legia Aktiv 124 / 127 40% 1 12.02.2027 -
Ilay Camara Anderlecht Aktiv 132 / 128 40% 1 07.02.2027 -
Lukáš Červ Viktoria Plzen Aktiv 134 / 124 40% 1 06.02.2027 -
Eduardo Quaresma Sporting CP Aktiv 139 / 159 40% 1 02.02.2027 -
Matheus Bidu Corinthians Aktiv 133 / 141 40% 3 29.01.2027 -
Sander Berge Fulham Aktiv 147 / 160 40% 1 29.01.2027 -
Matheuzinho Corinthians Aktiv 130 / 124 40% 1 22.01.2027 -
Pablo Rosario Porto Aktiv 146 / 120 40% 3 18.01.2027 -
Tomás Araújo Benfica Aktiv 150 / 161 40% 2 18.01.2027 -
Marlon Grêmio Aktiv 125 / 113 40% 2 17.01.2027 -
Fabrício Bruno Cruzeiro Aktiv 136 / 142 40% 1 17.01.2027 -
William Cruzeiro Aktiv 139 / 127 40% 2 14.01.2027 -
Lucas Veríssimo Santos Aktiv 134 / 140 40% 2 11.01.2027 -
Gustaf Lagerbielke Braga Aktiv 132 / 124 40% 1 04.01.2027 -
Lucas Romero Cruzeiro Aktiv 129 / 135 40% 1 04.01.2027 -
Reinildo Sunderland Aktiv 141 / 156 40% 2 02.01.2027 -
Christian Krasnodar Aktiv 135 / 131 40% 2 24.12.2026 -
Sabino Sport Recife Aktiv 126 / 119 40% 1 23.12.2026 -
Alexandro Bernabei Internacional Aktiv 136 / 122 40% 1 16.12.2026 -
Ángelo Preciado Atlético Mineiro Aktiv 131 / 124 40% 1 15.12.2026 -
Cauan Barros Vasco da Gama Aktiv 124 / 144 40% 1 07.12.2026 -
Jonathan Calleri Sport Recife Aktiv 135 / 120 79% 1 06.12.2026 Befürworten
Stanislav Agkatsev Sunderland Verhandlung 132 / 133 66% 1 01.12.2026 Befürworten
Konstantin Tyukavin Inter Verhandlung 132 / 133 66% 1 01.12.2026 Befürworten
Kostantis Tzolakis Hull City Aktiv 134 / 159 40% 9 30.11.2026 -
Léo Jardim Vasco da Gama Aktiv 141 / 122 40% 5 29.11.2026 -
Simone Scuffet Pisa Aktiv 126 / 140 40% 1 29.11.2026 -
Mads Hermansen West Ham United Aktiv 133 / 139 40% 6 28.11.2026 -
Jean America de Cali Aktiv 126 / 127 40% 5 28.11.2026 -
Barış Alper Yılmaz Galatasaray Aktiv 148 / 143 40% 2 27.11.2026 -
Facundo Cambeses Racing Club Aktiv 132 / 114 40% 10 27.11.2026 -
Ivan Toney Al-Ahli Aktiv 143 / 130 40% 2 27.11.2026 -
Jonathan Fischer FC Metz Aktiv 135 / 131 40% 2 27.11.2026 -
Yehvann Diouf OGC Nice Aktiv 138 / 137 40% 2 23.11.2026 -
Dean Henderson Crystal Palace Aktiv 152 / 151 40% 9 22.11.2026 -
Gabriel Jesus Barcelona Aktiv 163 / 154 40% 2 22.11.2026 -
Steven Bergwijn Al-Ittihad Aktiv 142 / 126 40% 1 22.11.2026 -
Mateo Pellegrino Fiorentina Aktiv 137 / 122 40% 1 22.11.2026 -
Fernando Tapia Club America Aktiv 129 / 128 40% 1 22.11.2026 -
Caoimhin Kelleher Brentford Aktiv 143 / 162 40% 10 21.11.2026 -
Erick Reyes Toluca Aktiv 142 / 148 40% 5 20.11.2026 -
Christian Walton Ipswich Town Aktiv 130 / 121 40% 6 18.11.2026 -
Soufiane Rahimi Guadalajara Aktiv 141 / 131 40% 2 18.11.2026 -
Ignacio de Arruabarrena Arouca Aktiv 121 / 135 40% 2 15.11.2026 -
Julián Quiñones Lokomotiv Moscow Aktiv 142 / 161 40% 3 14.11.2026 -
Anatolii Trubin Juventus Aktiv 152 / 163 40% 5 14.11.2026 -
Luka Jović AEK Aktiv 136 / 148 40% 1 14.11.2026 -
Joaquín Panichelli Le Havre AC Aktiv 150 / 154 40% 2 12.11.2026 -
Adnan Courtois KV Oostende Aktiv 133 / 139 40% 1 12.11.2026 -
Dmytro Riznyk Cruz Azul Aktiv 142 / 129 40% 1 12.11.2026 -
Bernardo Fontes Braga Aktiv 120 / 114 40% 1 12.11.2026 -
Arijanet Murić Sassuolo Aktiv 140 / 118 40% 3 10.11.2026 Beobachten
Cezary Miszta Rio Ave Aktiv 125 / 144 40% 3 08.11.2026 -
Matěj Kovář PSV Aktiv 138 / 150 40% 2 08.11.2026 -
Geny Sporting CP Aktiv 141 / 145 40% 2 06.11.2026 Mehr Infos nötig
Carlos Miguel Palmeiras Aktiv 135 / 120 40% 3 06.11.2026 -
Heorhii Sudakov Benfica Aktiv 143 / 128 40% 1 05.11.2026 -
Oussama Idrissi Pachuca Aktiv 140 / 147 40% 1 05.11.2026 -
Robin Roefs Sunderland Aktiv 135 / 150 40% 5 04.11.2026 -
Tomás Marchiori Vélez Aktiv 130 / 123 40% 6 04.11.2026 -
Carlos Moreno Pachuca Aktiv 128 / 124 40% 7 02.11.2026 -
Mike Maignan AC Milan Aktiv 163 / 164 40% 2 01.11.2026 -
Tomoki Hayakawa Kashima Antlers Aktiv 144 / 147 40% 6 31.10.2026 -
Hugo Souza Corinthians Aktiv 139 / 121 40% 8 31.10.2026 -
Andreas Pereira Palmeiras Aktiv 147 / 136 40% 1 31.10.2026 -
Gabriel Batista Botafogo Aktiv 123 / 117 40% 4 30.10.2026 -
Ángel Correa River Plate Aktiv 146 / 155 40% 3 29.10.2026 -
Santiago Castro AS Roma Aktiv 152 / 166 40% 1 29.10.2026 -
Uğurcan Çakır Braga Aktiv 141 / 124 40% 1 26.10.2026 -
Keisuke Osako Sanfrecce Hiroshima Aktiv 135 / 154 40% 2 25.10.2026 -
Randal Kolo Muani Juventus Aktiv 149 / 150 40% 1 25.10.2026 -
Youssef En-Nesyri Al-Ittihad Aktiv 136 / 119 40% 1 25.10.2026 -
Romelu Castagne KV Oostende Aktiv 140 / 139 40% 1 25.10.2026 -
Dodi Lukébakio Benfica Aktiv 145 / 129 40% 2 24.10.2026 -
Esteban Lepaul Stade Rennais Aktiv 133 / 142 40% 1 24.10.2026 -
Zack Steffen Spartak Moscow Aktiv 127 / 132 40% 4 20.10.2026 -
Jacob Widell Zetterström Derby County Aktiv 134 / 132 40% 1 19.10.2026 -
Matt Freese New York City Aktiv 133 / 128 40% 3 17.10.2026 -
Alexander Nübel Besiktas Aktiv 141 / 123 40% 2 17.10.2026 -
Raúl Rangel Sporting CP Aktiv 129 / 128 40% 1 16.10.2026 -
Ryosuke Kojima Kashiwa Reysol Aktiv 132 / 109 40% 1 15.10.2026 -
Lazar Carević Famalicao Aktiv 124 / 126 40% 4 11.10.2026 -
Gonzalo Crettaz NEC Aktiv 126 / 110 40% 1 06.10.2026 -
Radek Vítek Middlesbrough Aktiv 128 / 117 40% 4 03.10.2026 -
Hany Mukhtar Spezia Aktiv 132 / 146 40% 1 02.10.2026 -
Rubén Blanco Yokohama F. Marinos Aktiv 128 / 108 40% 1 28.09.2026 -
Jindřich Staněk KAA Gent Aktiv 136 / 147 40% 1 27.09.2026 -
Predrag Rajković Racing Genk Aktiv 135 / 151 40% 1 23.09.2026 -
Justin Bijlow Genoa Aktiv 138 / 138 40% 2 22.09.2026 -
Alex Meret Napoli Aktiv 144 / 149 40% 2 17.09.2026 -
Borja Sainz Fiorentina Aktiv 145 / 127 40% 2 16.09.2026 -
Michael Cooper Sheffield United Aktiv 120 / 144 40% 1 16.09.2026 -
Fredrik Aursnes Benfica Aktiv 153 / 143 40% 1 16.09.2026 -
Nikola Vasilj Al-Diriyah Aktiv 143 / 156 40% 2 13.09.2026 -
Kepa Arrizabalaga Arsenal Aktiv 149 / 134 40% 3 13.09.2026 -
Musa Barrow Al-Khaleej Aktiv 143 / 123 40% 1 13.09.2026 -
Roberto Fernández Braga Aktiv 134 / 122 40% 1 13.09.2026 -
James Trafford Leeds United Aktiv 133 / 137 40% 3 08.09.2026 -
Donyell Malen AS Roma Aktiv 150 / 131 40% 1 08.09.2026 -
Alex Iwobi Fulham Aktiv 140 / 140 40% 1 04.09.2026 -
Dominik Greif Olympique Lyonnais Aktiv 132 / 151 40% 1 31.08.2026 -
Matvey Safonov Paris Saint-Germain Aktiv 157 / 156 40% 1 29.08.2026 -
Kasper Dolberg Ajax Aktiv 142 / 127 40% 1 27.08.2026 -
Kerem Aktürkoğlu Fenerbahce Aktiv 139 / 160 40% 1 20.08.2026 -
Giacomo Raspadori Atalanta Aktiv 142 / 134 40% 1 14.08.2026 -
Rodrigo Garro Corinthians Aktiv 136 / 130 40% 1 13.08.2026 -
Maduka Okoye Udinese Aktiv 133 / 133 40% 1 13.08.2026 -
Martin Jedlička Banik Ostrava Aktiv 122 / 143 40% 1 12.08.2026 -
Michael Zetterer Leeds United Aktiv 128 / 145 40% 2 07.08.2026 -
Antonio Sivera Alavés Aktiv 140 / 145 40% 2 05.08.2026 -
Iván Martín Racing Santander Aktiv 145 / 131 40% 1 05.08.2026 -
Gorka Guruzeta Athletic Bilbao Aktiv 146 / 134 40% 1 05.08.2026 -
Santi Comesaña Villarreal Aktiv 146 / 162 40% 1 05.08.2026 -
Augusto Batalla Rayo Vallecano Aktiv 150 / 135 40% 1 02.08.2026 -